CPX210 Details

Departure: Miami International Airport (KMIA) at 0200 UTC
Arrival: Benito Juárez International Airport (MMMX) at 0500 UTC
Route: MNATE2 MNATE MTH B646 CANOA UB646 XOPGI UR522 NUBEL UT31 PAZ UJ55 DATUL DATUL4A
Notes:


Current Weather Information
KMIA 231153Z 00000KT 10SM FEW008 FEW020 SCT250 27/24 A2999 RMK AO2 SLP155 T02670239 10267 20256 51009
MMMX 231146Z 04004KT 8SM SCT020 OVC080 14/10 A3031 NOSIG RMK SLP110 57005 955 8/57/ HZY BINOVC